DLH7CH EDDS-EDDB
Flight info
| Callsign | DLH7CH |
|---|---|
| Flight time | 1h 10m |
| Altitude | 35000 |
| Route | OKIBA4B/25 OKIBA N851 RIMKI Z99 LOHRE N746 TIKNI T279 TAMEB T278 KLF KLF1R |
| Aircraft | A321/M-SDE3FGHIRWY/LB1 |
Departure
| Time | 2026-05-05 16:30 |
|---|---|
| Airport | Stuttgart Airport (EDDS) |
Arrival
| Time | 2026-05-05 17:41 |
|---|---|
| Airport | Berlin Brandenburg Airport (EDDB) |
| Time | Latitude | Longitude | Altitude | Speed | Heading |
|---|---|---|---|---|---|
| 2026-05-05 15:45 | 48.68890 | 9.19433 | 1290 ft | 0 kts | 343° |
| 2026-05-05 16:12 | 48.68869 | 9.19441 | 1289 ft | 4 kts | 355° |
| 2026-05-05 16:13 | 48.68807 | 9.19393 | 1290 ft | 1 kts | 74° |
| 2026-05-05 16:15 | 48.68846 | 9.19588 | 1285 ft | 14 kts | 75° |
| 2026-05-05 16:16 | 48.68870 | 9.19860 | 1287 ft | 8 kts | 131° |
| 2026-05-05 16:16 | 48.68830 | 9.20000 | 1285 ft | 10 kts | 76° |
| 2026-05-05 16:17 | 48.68914 | 9.20443 | 1285 ft | 28 kts | 74° |
| 2026-05-05 16:17 | 48.68969 | 9.20727 | 1285 ft | 28 kts | 73° |
| 2026-05-05 16:18 | 48.69076 | 9.21290 | 1286 ft | 28 kts | 74° |
| 2026-05-05 16:18 | 48.69128 | 9.21570 | 1287 ft | 28 kts | 74° |
| 2026-05-05 16:18 | 48.69235 | 9.22127 | 1285 ft | 27 kts | 75° |
| 2026-05-05 16:19 | 48.69287 | 9.22403 | 1285 ft | 27 kts | 73° |
| 2026-05-05 16:19 | 48.69341 | 9.22678 | 1287 ft | 27 kts | 73° |
| 2026-05-05 16:19 | 48.69436 | 9.23184 | 1285 ft | 25 kts | 72° |
| 2026-05-05 16:20 | 48.69526 | 9.23672 | 1287 ft | 24 kts | 74° |
| 2026-05-05 16:20 | 48.69560 | 9.23849 | 1287 ft | 0 kts | 73° |
| 2026-05-05 16:22 | 48.69585 | 9.23978 | 1288 ft | 2 kts | 74° |
| 2026-05-05 16:22 | 48.69586 | 9.23983 | 1287 ft | 0 kts | 74° |
| 2026-05-05 16:23 | 48.69595 | 9.24028 | 1287 ft | 12 kts | 73° |
| 2026-05-05 16:24 | 48.69601 | 9.24168 | 1285 ft | 13 kts | 108° |
| 2026-05-05 16:24 | 48.69599 | 9.24175 | 1285 ft | 0 kts | 110° |
| 2026-05-05 16:25 | 48.69595 | 9.24191 | 1285 ft | 6 kts | 110° |
| 2026-05-05 16:26 | 48.69556 | 9.24281 | 1285 ft | 0 kts | 142° |
| 2026-05-05 16:27 | 48.69551 | 9.24285 | 1288 ft | 3 kts | 148° |
| 2026-05-05 16:27 | 48.69502 | 9.24312 | 1288 ft | 6 kts | 163° |
| 2026-05-05 16:27 | 48.69500 | 9.24313 | 1288 ft | 0 kts | 163° |
| 2026-05-05 16:28 | 48.69488 | 9.24318 | 1285 ft | 7 kts | 166° |
| 2026-05-05 16:29 | 48.69391 | 9.24275 | 1287 ft | 17 kts | 228° |
| 2026-05-05 16:29 | 48.69372 | 9.24216 | 1285 ft | 0 kts | 252° |
| 2026-05-05 16:29 | 48.69351 | 9.24109 | 1285 ft | 39 kts | 253° |
| 2026-05-05 16:30 | 48.69208 | 9.23350 | 1286 ft | 108 kts | 254° |
| 2026-05-05 16:30 | 48.68944 | 9.21959 | 1288 ft | 165 kts | 254° |
| 2026-05-05 16:30 | 48.68615 | 9.20218 | 1742 ft | 176 kts | 255° |
| 2026-05-05 16:30 | 48.68281 | 9.18406 | 2525 ft | 176 kts | 254° |
| 2026-05-05 16:31 | 48.67938 | 9.16648 | 3140 ft | 178 kts | 253° |
| 2026-05-05 16:31 | 48.67563 | 9.14755 | 3398 ft | 198 kts | 253° |
| 2026-05-05 16:31 | 48.67144 | 9.12655 | 3562 ft | 220 kts | 253° |
| 2026-05-05 16:31 | 48.67060 | 9.10270 | 3828 ft | 239 kts | 287° |
| 2026-05-05 16:32 | 48.67913 | 9.08107 | 4565 ft | 242 kts | 305° |
| 2026-05-05 16:32 | 48.69196 | 9.06428 | 5202 ft | 253 kts | 331° |
| 2026-05-05 16:32 | 48.70944 | 9.05566 | 5563 ft | 273 kts | 342° |
| 2026-05-05 16:32 | 48.72794 | 9.04774 | 6175 ft | 279 kts | 340° |
| 2026-05-05 16:33 | 48.74736 | 9.04272 | 6757 ft | 289 kts | 358° |
| 2026-05-05 16:33 | 48.76731 | 9.04861 | 7368 ft | 298 kts | 21° |
| 2026-05-05 16:33 | 48.78474 | 9.06581 | 8016 ft | 303 kts | 45° |
| 2026-05-05 16:33 | 48.79774 | 9.09110 | 8681 ft | 306 kts | 56° |
| 2026-05-05 16:34 | 48.81006 | 9.11771 | 9332 ft | 309 kts | 56° |
| 2026-05-05 16:34 | 48.82248 | 9.14465 | 9974 ft | 313 kts | 56° |
| 2026-05-05 16:34 | 48.83537 | 9.17257 | 10170 ft | 334 kts | 55° |
| 2026-05-05 16:34 | 48.84910 | 9.20231 | 10290 ft | 353 kts | 55° |
| 2026-05-05 16:35 | 48.86362 | 9.23368 | 10422 ft | 371 kts | 55° |
| 2026-05-05 16:35 | 48.87877 | 9.26600 | 10815 ft | 379 kts | 52° |
| 2026-05-05 16:35 | 48.89718 | 9.29491 | 11340 ft | 383 kts | 38° |
| 2026-05-05 16:35 | 48.91952 | 9.31684 | 11896 ft | 384 kts | 25° |
| 2026-05-05 16:36 | 48.94459 | 9.33059 | 12457 ft | 385 kts | 11° |
| 2026-05-05 16:36 | 48.97121 | 9.33538 | 13021 ft | 386 kts | 358° |
| 2026-05-05 16:36 | 48.99809 | 9.33344 | 13585 ft | 388 kts | 355° |
| 2026-05-05 16:36 | 49.02512 | 9.33119 | 14094 ft | 390 kts | 355° |
| 2026-05-05 16:37 | 49.05233 | 9.32902 | 14579 ft | 393 kts | 355° |
| 2026-05-05 16:37 | 49.07975 | 9.32687 | 15066 ft | 396 kts | 355° |
| 2026-05-05 16:37 | 49.10728 | 9.32467 | 15553 ft | 399 kts | 355° |
| 2026-05-05 16:37 | 49.13511 | 9.32247 | 16054 ft | 401 kts | 355° |
| 2026-05-05 16:38 | 49.16311 | 9.32027 | 16564 ft | 405 kts | 356° |
| 2026-05-05 16:38 | 49.19144 | 9.31804 | 17090 ft | 409 kts | 356° |
| 2026-05-05 16:38 | 49.21963 | 9.31579 | 17633 ft | 413 kts | 356° |
| 2026-05-05 16:38 | 49.24846 | 9.31352 | 18080 ft | 416 kts | 356° |
| 2026-05-05 16:39 | 49.27748 | 9.31126 | 18469 ft | 418 kts | 356° |
| 2026-05-05 16:39 | 49.30668 | 9.30900 | 18846 ft | 421 kts | 356° |
| 2026-05-05 16:39 | 49.33601 | 9.30677 | 19226 ft | 423 kts | 356° |
| 2026-05-05 16:39 | 49.36551 | 9.30696 | 19584 ft | 426 kts | 4° |
| 2026-05-05 16:40 | 49.39510 | 9.31133 | 19938 ft | 429 kts | 6° |
| 2026-05-05 16:40 | 49.42488 | 9.31579 | 20312 ft | 431 kts | 6° |
| 2026-05-05 16:40 | 49.45477 | 9.32025 | 20701 ft | 433 kts | 6° |
| 2026-05-05 16:40 | 49.48491 | 9.32470 | 21096 ft | 435 kts | 6° |
| 2026-05-05 16:41 | 49.51505 | 9.32916 | 21507 ft | 437 kts | 6° |
| 2026-05-05 16:41 | 49.54543 | 9.33369 | 21910 ft | 439 kts | 6° |
| 2026-05-05 16:41 | 49.57596 | 9.33825 | 22290 ft | 441 kts | 6° |
| 2026-05-05 16:41 | 49.60656 | 9.34276 | 22631 ft | 443 kts | 6° |
| 2026-05-05 16:42 | 49.63739 | 9.34726 | 22979 ft | 446 kts | 6° |
| 2026-05-05 16:42 | 49.66838 | 9.35181 | 23326 ft | 448 kts | 6° |
| 2026-05-05 16:42 | 49.69949 | 9.35644 | 23631 ft | 451 kts | 6° |
| 2026-05-05 16:42 | 49.73074 | 9.36113 | 23923 ft | 453 kts | 6° |
| 2026-05-05 16:43 | 49.76149 | 9.36861 | 24202 ft | 454 kts | 14° |
| 2026-05-05 16:43 | 49.79215 | 9.38036 | 24481 ft | 455 kts | 15° |
| 2026-05-05 16:43 | 49.82299 | 9.39227 | 24775 ft | 457 kts | 15° |
| 2026-05-05 16:43 | 49.85396 | 9.40424 | 25050 ft | 459 kts | 15° |
| 2026-05-05 16:44 | 49.88504 | 9.41621 | 25331 ft | 462 kts | 15° |
| 2026-05-05 16:44 | 49.91627 | 9.42824 | 25616 ft | 464 kts | 15° |
| 2026-05-05 16:44 | 49.94765 | 9.44033 | 25896 ft | 465 kts | 15° |
| 2026-05-05 16:44 | 49.97914 | 9.45245 | 26173 ft | 467 kts | 15° |
| 2026-05-05 16:45 | 50.01077 | 9.46464 | 26452 ft | 469 kts | 15° |
| 2026-05-05 16:45 | 50.04236 | 9.47791 | 26711 ft | 471 kts | 20° |
| 2026-05-05 16:45 | 50.07271 | 9.49757 | 26929 ft | 472 kts | 28° |
| 2026-05-05 16:45 | 50.10081 | 9.52397 | 27177 ft | 472 kts | 37° |
| 2026-05-05 16:46 | 50.12753 | 9.55404 | 27424 ft | 474 kts | 38° |
| 2026-05-05 16:46 | 50.15427 | 9.58420 | 27678 ft | 476 kts | 38° |
| 2026-05-05 16:46 | 50.18115 | 9.61447 | 27914 ft | 478 kts | 38° |
| 2026-05-05 16:46 | 50.20818 | 9.64484 | 28138 ft | 479 kts | 38° |
| 2026-05-05 16:47 | 50.23526 | 9.67531 | 28364 ft | 481 kts | 38° |
| 2026-05-05 16:47 | 50.26242 | 9.70599 | 28525 ft | 483 kts | 37° |
| 2026-05-05 16:47 | 50.28974 | 9.73692 | 28663 ft | 486 kts | 37° |
| 2026-05-05 16:47 | 50.31717 | 9.76799 | 28896 ft | 487 kts | 37° |
| 2026-05-05 16:48 | 50.34462 | 9.79910 | 29184 ft | 487 kts | 37° |
| 2026-05-05 16:48 | 50.37201 | 9.83021 | 29459 ft | 486 kts | 37° |
| 2026-05-05 16:48 | 50.39924 | 9.86158 | 29776 ft | 485 kts | 40° |
| 2026-05-05 16:48 | 50.42386 | 9.89646 | 30008 ft | 483 kts | 49° |
| 2026-05-05 16:49 | 50.44690 | 9.93482 | 30243 ft | 482 kts | 49° |
| 2026-05-05 16:49 | 50.46992 | 9.97315 | 30435 ft | 483 kts | 49° |
| 2026-05-05 16:49 | 50.49303 | 10.01156 | 30616 ft | 484 kts | 49° |
| 2026-05-05 16:49 | 50.51614 | 10.04996 | 30837 ft | 484 kts | 49° |
| 2026-05-05 16:50 | 50.53179 | 10.07598 | 30986 ft | 484 kts | 49° |
| 2026-05-05 16:50 | 50.55461 | 10.11397 | 31215 ft | 484 kts | 49° |
| 2026-05-05 16:50 | 50.57768 | 10.15244 | 31441 ft | 483 kts | 49° |
| 2026-05-05 16:50 | 50.60072 | 10.19097 | 31695 ft | 483 kts | 49° |
| 2026-05-05 16:51 | 50.62367 | 10.22954 | 31944 ft | 482 kts | 49° |
| 2026-05-05 16:51 | 50.64596 | 10.26893 | 32185 ft | 480 kts | 54° |
| 2026-05-05 16:51 | 50.66471 | 10.31222 | 32385 ft | 477 kts | 63° |
| 2026-05-05 16:51 | 50.68067 | 10.35818 | 32575 ft | 477 kts | 64° |
| 2026-05-05 16:52 | 50.69651 | 10.40420 | 32803 ft | 477 kts | 64° |
| 2026-05-05 16:52 | 50.71232 | 10.45020 | 33049 ft | 477 kts | 64° |
| 2026-05-05 16:52 | 50.72810 | 10.49618 | 33305 ft | 476 kts | 64° |
| 2026-05-05 16:52 | 50.74388 | 10.54213 | 33552 ft | 476 kts | 64° |
| 2026-05-05 16:53 | 50.75962 | 10.58814 | 33774 ft | 476 kts | 64° |
| 2026-05-05 16:53 | 50.77531 | 10.63421 | 33967 ft | 476 kts | 64° |
| 2026-05-05 16:53 | 50.79095 | 10.68016 | 34141 ft | 475 kts | 64° |
| 2026-05-05 16:53 | 50.80660 | 10.72628 | 34324 ft | 475 kts | 64° |
| 2026-05-05 16:54 | 50.82217 | 10.77228 | 34497 ft | 475 kts | 64° |
| 2026-05-05 16:54 | 50.83776 | 10.81840 | 34686 ft | 475 kts | 64° |
| 2026-05-05 16:54 | 50.85334 | 10.86451 | 34797 ft | 476 kts | 64° |
| 2026-05-05 16:54 | 50.86876 | 10.91026 | 34838 ft | 478 kts | 64° |
| 2026-05-05 16:55 | 50.90011 | 11.00345 | 34839 ft | 480 kts | 64° |
| 2026-05-05 16:55 | 50.93143 | 11.09678 | 34838 ft | 479 kts | 64° |
| 2026-05-05 16:56 | 50.96267 | 11.19023 | 34812 ft | 479 kts | 64° |
| 2026-05-05 16:56 | 50.99377 | 11.28395 | 34831 ft | 479 kts | 64° |
| 2026-05-05 16:57 | 51.02479 | 11.37769 | 34849 ft | 480 kts | 64° |
| 2026-05-05 16:57 | 51.05579 | 11.47180 | 34806 ft | 482 kts | 64° |
| 2026-05-05 16:58 | 51.08703 | 11.56651 | 34813 ft | 484 kts | 64° |
| 2026-05-05 16:58 | 51.11817 | 11.66166 | 34809 ft | 486 kts | 64° |
| 2026-05-05 16:59 | 51.14925 | 11.75723 | 34821 ft | 486 kts | 64° |
| 2026-05-05 16:59 | 51.18029 | 11.85307 | 34831 ft | 487 kts | 64° |
| 2026-05-05 17:00 | 51.21375 | 11.94707 | 34670 ft | 489 kts | 54° |
| 2026-05-05 17:00 | 51.23567 | 11.98836 | 34397 ft | 489 kts | 46° |
| 2026-05-05 17:00 | 51.25868 | 12.02726 | 34154 ft | 489 kts | 46° |
| 2026-05-05 17:01 | 51.28211 | 12.06683 | 33824 ft | 489 kts | 46° |
| 2026-05-05 17:01 | 51.30558 | 12.10639 | 32925 ft | 492 kts | 46° |
| 2026-05-05 17:01 | 51.32915 | 12.14613 | 32110 ft | 493 kts | 46° |
| 2026-05-05 17:01 | 51.35276 | 12.18593 | 31275 ft | 494 kts | 46° |
| 2026-05-05 17:02 | 51.37645 | 12.22594 | 30400 ft | 495 kts | 47° |
| 2026-05-05 17:02 | 51.40018 | 12.26614 | 29433 ft | 498 kts | 47° |
| 2026-05-05 17:02 | 51.42375 | 12.30616 | 28972 ft | 489 kts | 46° |
| 2026-05-05 17:02 | 51.44698 | 12.34561 | 28370 ft | 484 kts | 46° |
| 2026-05-05 17:03 | 51.46992 | 12.38457 | 27801 ft | 478 kts | 46° |
| 2026-05-05 17:03 | 51.49260 | 12.42318 | 27235 ft | 473 kts | 47° |
| 2026-05-05 17:03 | 51.51501 | 12.46149 | 26673 ft | 468 kts | 47° |
| 2026-05-05 17:03 | 51.53712 | 12.49937 | 26114 ft | 463 kts | 47° |
| 2026-05-05 17:04 | 51.55905 | 12.53702 | 25498 ft | 460 kts | 47° |
| 2026-05-05 17:04 | 51.58087 | 12.57452 | 24891 ft | 457 kts | 47° |
| 2026-05-05 17:04 | 51.60252 | 12.61176 | 24300 ft | 454 kts | 47° |
| 2026-05-05 17:04 | 51.62403 | 12.64880 | 23720 ft | 452 kts | 47° |
| 2026-05-05 17:05 | 51.64543 | 12.68571 | 23102 ft | 449 kts | 47° |
| 2026-05-05 17:05 | 51.66666 | 12.72238 | 22426 ft | 445 kts | 47° |
| 2026-05-05 17:05 | 51.68742 | 12.75824 | 21812 ft | 441 kts | 47° |
| 2026-05-05 17:05 | 51.70819 | 12.79416 | 21294 ft | 434 kts | 47° |
| 2026-05-05 17:06 | 51.72864 | 12.82957 | 20785 ft | 429 kts | 47° |
| 2026-05-05 17:06 | 51.74889 | 12.86469 | 20282 ft | 425 kts | 47° |
| 2026-05-05 17:06 | 51.76890 | 12.89956 | 19788 ft | 422 kts | 48° |
| 2026-05-05 17:06 | 51.78644 | 12.93708 | 19302 ft | 416 kts | 58° |
| 2026-05-05 17:07 | 51.80133 | 12.97685 | 18825 ft | 411 kts | 59° |
| 2026-05-05 17:07 | 51.81599 | 13.01611 | 18360 ft | 406 kts | 59° |
| 2026-05-05 17:07 | 51.83058 | 13.05506 | 17863 ft | 403 kts | 59° |
| 2026-05-05 17:07 | 51.84500 | 13.09363 | 17331 ft | 399 kts | 59° |
| 2026-05-05 17:08 | 51.85929 | 13.13185 | 16804 ft | 394 kts | 59° |
| 2026-05-05 17:08 | 51.87341 | 13.16961 | 16285 ft | 389 kts | 59° |
| 2026-05-05 17:08 | 51.88732 | 13.20689 | 15781 ft | 385 kts | 59° |
| 2026-05-05 17:08 | 51.90109 | 13.24385 | 15283 ft | 380 kts | 59° |
| 2026-05-05 17:09 | 51.91464 | 13.28025 | 14786 ft | 376 kts | 59° |
| 2026-05-05 17:09 | 51.92810 | 13.31631 | 14305 ft | 372 kts | 57° |
| 2026-05-05 17:09 | 51.94483 | 13.34777 | 13835 ft | 377 kts | 38° |
| 2026-05-05 17:09 | 51.96753 | 13.36841 | 13330 ft | 374 kts | 16° |
| 2026-05-05 17:10 | 51.99288 | 13.37488 | 12805 ft | 367 kts | 355° |
| 2026-05-05 17:10 | 52.01738 | 13.36656 | 12298 ft | 357 kts | 334° |
| 2026-05-05 17:10 | 52.03800 | 13.34520 | 11793 ft | 349 kts | 317° |
| 2026-05-05 17:10 | 52.05608 | 13.31918 | 11300 ft | 347 kts | 315° |
| 2026-05-05 17:11 | 52.07387 | 13.29262 | 10802 ft | 347 kts | 315° |
| 2026-05-05 17:11 | 52.09154 | 13.26600 | 10313 ft | 346 kts | 315° |
| 2026-05-05 17:11 | 52.10923 | 13.23936 | 9829 ft | 345 kts | 315° |
| 2026-05-05 17:11 | 52.12686 | 13.21274 | 9300 ft | 345 kts | 315° |
| 2026-05-05 17:12 | 52.14224 | 13.18332 | 8775 ft | 340 kts | 298° |
| 2026-05-05 17:12 | 52.15079 | 13.14804 | 8262 ft | 332 kts | 286° |
| 2026-05-05 17:12 | 52.15732 | 13.11226 | 7756 ft | 327 kts | 285° |
| 2026-05-05 17:12 | 52.16357 | 13.07701 | 7259 ft | 322 kts | 285° |
| 2026-05-05 17:13 | 52.16972 | 13.04221 | 6769 ft | 318 kts | 285° |
| 2026-05-05 17:13 | 52.17579 | 13.00780 | 6284 ft | 314 kts | 285° |
| 2026-05-05 17:13 | 52.18172 | 12.97371 | 5775 ft | 311 kts | 285° |
| 2026-05-05 17:13 | 52.18750 | 12.93985 | 5268 ft | 309 kts | 285° |
| 2026-05-05 17:14 | 52.19308 | 12.90652 | 5023 ft | 298 kts | 285° |
| 2026-05-05 17:14 | 52.19834 | 12.87464 | 4889 ft | 284 kts | 285° |
| 2026-05-05 17:14 | 52.20437 | 12.84558 | 4945 ft | 268 kts | 300° |
| 2026-05-05 17:14 | 52.21689 | 12.82351 | 5002 ft | 267 kts | 328° |
| 2026-05-05 17:15 | 52.23434 | 12.81373 | 5016 ft | 268 kts | 356° |
| 2026-05-05 17:15 | 52.25260 | 12.81863 | 5011 ft | 270 kts | 24° |
| 2026-05-05 17:15 | 52.26871 | 12.83439 | 5022 ft | 271 kts | 34° |
| 2026-05-05 17:15 | 52.28414 | 12.85204 | 5021 ft | 271 kts | 34° |
| 2026-05-05 17:16 | 52.29951 | 12.86999 | 5020 ft | 271 kts | 35° |
| 2026-05-05 17:16 | 52.31484 | 12.88805 | 5019 ft | 273 kts | 35° |
| 2026-05-05 17:16 | 52.33014 | 12.90655 | 5017 ft | 274 kts | 40° |
| 2026-05-05 17:16 | 52.34139 | 12.93140 | 5015 ft | 275 kts | 68° |
| 2026-05-05 17:17 | 52.34361 | 12.96207 | 5024 ft | 275 kts | 97° |
| 2026-05-05 17:17 | 52.34108 | 12.99317 | 5019 ft | 274 kts | 98° |
| 2026-05-05 17:17 | 52.33833 | 13.02382 | 4668 ft | 273 kts | 98° |
| 2026-05-05 17:17 | 52.33555 | 13.05465 | 4294 ft | 272 kts | 98° |
| 2026-05-05 17:18 | 52.33283 | 13.08500 | 3945 ft | 269 kts | 97° |
| 2026-05-05 17:18 | 52.33020 | 13.11489 | 3811 ft | 259 kts | 98° |
| 2026-05-05 17:18 | 52.32755 | 13.14408 | 3465 ft | 261 kts | 98° |
| 2026-05-05 17:18 | 52.32487 | 13.17350 | 3088 ft | 260 kts | 97° |
| 2026-05-05 17:19 | 52.32224 | 13.20221 | 3006 ft | 259 kts | 97° |
| 2026-05-05 17:19 | 52.31957 | 13.23143 | 3010 ft | 261 kts | 97° |
| 2026-05-05 17:19 | 52.31729 | 13.26086 | 2932 ft | 260 kts | 89° |
| 2026-05-05 17:19 | 52.32051 | 13.28943 | 2668 ft | 255 kts | 70° |
| 2026-05-05 17:20 | 52.32704 | 13.31624 | 2343 ft | 252 kts | 66° |
| 2026-05-05 17:20 | 52.33369 | 13.34269 | 2011 ft | 251 kts | 67° |
| 2026-05-05 17:20 | 52.34007 | 13.36915 | 1672 ft | 247 kts | 67° |
| 2026-05-05 17:20 | 52.34627 | 13.39517 | 1337 ft | 243 kts | 67° |
| 2026-05-05 17:21 | 52.35214 | 13.41982 | 1031 ft | 220 kts | 68° |
| 2026-05-05 17:21 | 52.35744 | 13.44195 | 734 ft | 198 kts | 68° |
| 2026-05-05 17:21 | 52.36247 | 13.46169 | 474 ft | 178 kts | 66° |
| 2026-05-05 17:22 | 52.37185 | 13.49496 | 570 ft | 167 kts | 64° |
| 2026-05-05 17:22 | 52.37705 | 13.51243 | 1007 ft | 171 kts | 65° |
| 2026-05-05 17:22 | 52.38113 | 13.52959 | 1390 ft | 154 kts | 69° |
| 2026-05-05 17:22 | 52.38469 | 13.54664 | 1794 ft | 167 kts | 68° |
| 2026-05-05 17:23 | 52.38907 | 13.56592 | 2119 ft | 194 kts | 68° |
| 2026-05-05 17:23 | 52.39447 | 13.58817 | 2454 ft | 226 kts | 66° |
| 2026-05-05 17:23 | 52.40089 | 13.61321 | 2920 ft | 250 kts | 66° |
| 2026-05-05 17:23 | 52.40800 | 13.63973 | 3430 ft | 247 kts | 65° |
| 2026-05-05 17:24 | 52.41500 | 13.66405 | 3488 ft | 230 kts | 63° |
| 2026-05-05 17:24 | 52.42244 | 13.68816 | 3060 ft | 246 kts | 63° |
| 2026-05-05 17:24 | 52.43037 | 13.71371 | 3004 ft | 255 kts | 63° |
| 2026-05-05 17:24 | 52.43832 | 13.73989 | 3008 ft | 258 kts | 66° |
| 2026-05-05 17:25 | 52.44486 | 13.76734 | 3011 ft | 258 kts | 69° |
| 2026-05-05 17:25 | 52.44888 | 13.78545 | 3007 ft | 250 kts | 69° |
| 2026-05-05 17:25 | 52.45587 | 13.82007 | 3006 ft | 228 kts | 79° |
| 2026-05-05 17:25 | 52.45549 | 13.84548 | 3029 ft | 231 kts | 104° |
| 2026-05-05 17:26 | 52.44757 | 13.86965 | 3409 ft | 251 kts | 133° |
| 2026-05-05 17:26 | 52.43317 | 13.88516 | 4120 ft | 250 kts | 164° |
| 2026-05-05 17:26 | 52.41665 | 13.88753 | 5245 ft | 234 kts | 189° |
| 2026-05-05 17:26 | 52.40138 | 13.87810 | 5721 ft | 230 kts | 219° |
| 2026-05-05 17:27 | 52.39106 | 13.85879 | 6161 ft | 226 kts | 244° |
| 2026-05-05 17:27 | 52.38745 | 13.83438 | 6570 ft | 227 kts | 270° |
| 2026-05-05 17:27 | 52.38817 | 13.80845 | 6931 ft | 231 kts | 275° |
| 2026-05-05 17:27 | 52.38964 | 13.78237 | 7001 ft | 229 kts | 275° |
| 2026-05-05 17:28 | 52.39128 | 13.75657 | 7005 ft | 228 kts | 275° |
| 2026-05-05 17:28 | 52.39298 | 13.73084 | 7007 ft | 227 kts | 276° |
| 2026-05-05 17:28 | 52.39466 | 13.70516 | 7009 ft | 228 kts | 275° |
| 2026-05-05 17:28 | 52.39633 | 13.67936 | 7009 ft | 228 kts | 275° |
| 2026-05-05 17:29 | 52.39805 | 13.65374 | 7005 ft | 224 kts | 275° |
| 2026-05-05 17:29 | 52.39978 | 13.62827 | 7005 ft | 225 kts | 275° |
| 2026-05-05 17:29 | 52.40152 | 13.60265 | 7007 ft | 226 kts | 275° |
| 2026-05-05 17:29 | 52.40323 | 13.57705 | 7007 ft | 227 kts | 275° |
| 2026-05-05 17:30 | 52.40493 | 13.55146 | 7002 ft | 226 kts | 276° |
| 2026-05-05 17:30 | 52.40659 | 13.52566 | 7004 ft | 228 kts | 275° |
| 2026-05-05 17:30 | 52.40823 | 13.49982 | 7007 ft | 227 kts | 275° |
| 2026-05-05 17:30 | 52.40987 | 13.47405 | 7004 ft | 228 kts | 276° |
| 2026-05-05 17:31 | 52.41148 | 13.44810 | 7005 ft | 230 kts | 275° |
| 2026-05-05 17:31 | 52.41311 | 13.42169 | 7007 ft | 237 kts | 275° |
| 2026-05-05 17:31 | 52.41474 | 13.39484 | 6716 ft | 238 kts | 275° |
| 2026-05-05 17:31 | 52.41633 | 13.36783 | 6356 ft | 238 kts | 275° |
| 2026-05-05 17:32 | 52.41790 | 13.34091 | 6032 ft | 236 kts | 275° |
| 2026-05-05 17:32 | 52.41942 | 13.31454 | 5676 ft | 236 kts | 275° |
| 2026-05-05 17:32 | 52.42094 | 13.28781 | 5310 ft | 236 kts | 275° |
| 2026-05-05 17:32 | 52.42244 | 13.26110 | 4973 ft | 235 kts | 275° |
| 2026-05-05 17:33 | 52.42392 | 13.23456 | 4643 ft | 233 kts | 275° |
| 2026-05-05 17:33 | 52.42537 | 13.20816 | 4290 ft | 233 kts | 275° |
| 2026-05-05 17:33 | 52.42576 | 13.18180 | 4020 ft | 230 kts | 258° |
| 2026-05-05 17:33 | 52.41865 | 13.15847 | 4015 ft | 234 kts | 225° |
| 2026-05-05 17:34 | 52.40531 | 13.14324 | 4012 ft | 236 kts | 208° |
| 2026-05-05 17:34 | 52.39059 | 13.13124 | 4011 ft | 236 kts | 205° |
| 2026-05-05 17:34 | 52.37570 | 13.11970 | 4015 ft | 237 kts | 205° |
| 2026-05-05 17:34 | 52.36082 | 13.10828 | 4015 ft | 237 kts | 205° |
| 2026-05-05 17:35 | 52.34586 | 13.09685 | 4016 ft | 236 kts | 205° |
| 2026-05-05 17:35 | 52.33124 | 13.08631 | 4008 ft | 223 kts | 195° |
| 2026-05-05 17:35 | 52.32109 | 13.08452 | 4014 ft | 227 kts | 173° |
| 2026-05-05 17:35 | 52.30579 | 13.09242 | 4016 ft | 235 kts | 147° |
| 2026-05-05 17:36 | 52.29466 | 13.11140 | 4018 ft | 234 kts | 115° |
| 2026-05-05 17:36 | 52.28983 | 13.13670 | 4009 ft | 234 kts | 95° |
| 2026-05-05 17:36 | 52.29088 | 13.16308 | 4005 ft | 234 kts | 74° |
| 2026-05-05 17:36 | 52.29635 | 13.18748 | 3920 ft | 223 kts | 68° |
| 2026-05-05 17:37 | 52.30195 | 13.21054 | 3661 ft | 215 kts | 68° |
| 2026-05-05 17:37 | 52.30732 | 13.23278 | 3408 ft | 205 kts | 68° |
| 2026-05-05 17:37 | 52.31244 | 13.25407 | 3133 ft | 197 kts | 68° |
| 2026-05-05 17:37 | 52.31736 | 13.27452 | 2869 ft | 189 kts | 68° |
| 2026-05-05 17:38 | 52.32203 | 13.29399 | 2614 ft | 179 kts | 67° |
| 2026-05-05 17:38 | 52.32647 | 13.31251 | 2392 ft | 172 kts | 68° |
| 2026-05-05 17:38 | 52.33083 | 13.33068 | 2177 ft | 170 kts | 68° |
| 2026-05-05 17:38 | 52.33512 | 13.34858 | 1939 ft | 169 kts | 67° |
| 2026-05-05 17:39 | 52.33936 | 13.36631 | 1711 ft | 166 kts | 66° |
| 2026-05-05 17:39 | 52.34333 | 13.38292 | 1487 ft | 148 kts | 67° |
| 2026-05-05 17:39 | 52.34699 | 13.39825 | 1295 ft | 145 kts | 66° |
| 2026-05-05 17:39 | 52.35062 | 13.41341 | 1101 ft | 141 kts | 66° |
| 2026-05-05 17:40 | 52.35422 | 13.42851 | 920 ft | 139 kts | 66° |
| 2026-05-05 17:40 | 52.35767 | 13.44299 | 733 ft | 139 kts | 67° |
| 2026-05-05 17:40 | 52.36119 | 13.45767 | 538 ft | 139 kts | 67° |
| 2026-05-05 17:40 | 52.36469 | 13.47240 | 381 ft | 138 kts | 68° |
| 2026-05-05 17:41 | 52.36820 | 13.48711 | 200 ft | 139 kts | 67° |
| 2026-05-05 17:41 | 52.37135 | 13.50028 | 156 ft | 102 kts | 69° |
| 2026-05-05 17:41 | 52.37295 | 13.50716 | 154 ft | 31 kts | 77° |
| 2026-05-05 17:41 | 52.37300 | 13.51053 | 157 ft | 28 kts | 98° |
| 2026-05-05 17:42 | 52.37294 | 13.51122 | 157 ft | 0 kts | 98° |
| 2026-05-05 17:43 | 52.37291 | 13.51156 | 157 ft | 10 kts | 98° |
| 2026-05-05 17:43 | 52.37245 | 13.51297 | 158 ft | 17 kts | 170° |
| 2026-05-05 17:43 | 52.37166 | 13.51168 | 158 ft | 18 kts | 247° |
| 2026-05-05 17:43 | 52.37121 | 13.50967 | 158 ft | 19 kts | 248° |
| 2026-05-05 17:44 | 52.37071 | 13.50750 | 158 ft | 21 kts | 251° |
| 2026-05-05 17:44 | 52.37026 | 13.50513 | 158 ft | 22 kts | 244° |
| 2026-05-05 17:44 | 52.36964 | 13.50320 | 158 ft | 14 kts | 251° |
| 2026-05-05 17:44 | 52.36923 | 13.50169 | 158 ft | 15 kts | 231° |
| 2026-05-05 17:45 | 52.36822 | 13.50161 | 159 ft | 16 kts | 161° |
| 2026-05-05 17:45 | 52.36730 | 13.50226 | 159 ft | 0 kts | 153° |
| 2026-05-05 17:45 | 52.36692 | 13.50246 | 159 ft | 17 kts | 162° |
| 2026-05-05 17:45 | 52.36546 | 13.50333 | 159 ft | 16 kts | 159° |
| 2026-05-05 17:46 | 52.36512 | 13.50355 | 159 ft | 6 kts | 156° |
| 2026-05-05 17:46 | 52.36491 | 13.50415 | 159 ft | 7 kts | 109° |
| 2026-05-05 17:46 | 52.36496 | 13.50499 | 159 ft | 8 kts | 71° |
| 2026-05-05 17:46 | 52.36510 | 13.50556 | 159 ft | 0 kts | 69° |